Hmpden Sydney, Virginia
Current Conditions -  °F | °C
As of 2:35 AM on Wednesday 22 Oct 2014 (Local Time) from KFVX Reporting Station
Light Rain Light Rain  
Wind Chill: 52°   Ceiling: 4800
Heat Index: 52°   Visibility: 10mi
Dew Point: 50°   Wind: 0mph
Humidity: 94%   Direction: NA
Pressure: 29.89"   Gusts: NA
Location:  37.2408°N, 78.4578°W
Report Text: KFVX 220635Z AUTO 00000KT 10SM -RA BKN048 OVC060 11/10 A2989 RMK AO2
Loading
Personal Weather Stations






























Interactive Weather Map
Tropical Storm Tracking
New forecast layout! Learn more

10-Day Weather Forecast

Advertisements
Track Severe Weather on mobile